createdAt,value
2023-10-20T00:00:35.292Z,20.4
2023-10-20T00:05:36.864Z,20.4
2023-10-20T00:10:37.765Z,20.5
2023-10-20T00:15:38.772Z,20.4
2023-10-20T00:20:42.342Z,20.4
2023-10-20T00:25:42.505Z,20.4
2023-10-20T00:30:43.477Z,20.4
2023-10-20T00:35:48.617Z,20.4
2023-10-20T00:40:51.446Z,20.4
2023-10-20T00:45:52.401Z,20.4
2023-10-20T00:50:53.120Z,20.4
2023-10-20T00:55:56.862Z,20.3
2023-10-20T01:00:57.518Z,20.4
2023-10-20T01:05:58.358Z,20.4
2023-10-20T01:10:59.342Z,20.4
2023-10-20T01:16:00.188Z,20.4
2023-10-20T01:21:01.012Z,20.4
2023-10-20T01:26:01.941Z,20.4
2023-10-20T01:31:02.805Z,20.4
2023-10-20T01:36:06.455Z,20.4
2023-10-20T01:41:09.701Z,20.4
2023-10-20T01:46:10.133Z,20.3
2023-10-20T01:51:13.673Z,20.3
2023-10-20T01:56:14.202Z,20.4
2023-10-20T02:01:15.176Z,20.3
2023-10-20T02:06:18.967Z,20.3
2023-10-20T02:11:19.211Z,20.3
2023-10-20T02:16:22.862Z,20.3
2023-10-20T02:21:23.152Z,20.3
2023-10-20T02:26:26.916Z,20.3
2023-10-20T02:31:30.168Z,20.3
2023-10-20T02:36:30.556Z,20.3
2023-10-20T02:41:31.428Z,20.3
2023-10-20T02:46:32.287Z,20.3
2023-10-20T02:51:33.345Z,20.3
2023-10-20T02:56:34.370Z,20.3
2023-10-20T03:01:38.108Z,20.2
2023-10-20T03:06:37.504Z,20.3
2023-10-20T03:11:41.483Z,20.2
2023-10-20T03:16:42.218Z,20.2
2023-10-20T03:21:43.203Z,20.3
2023-10-20T03:26:44.254Z,20.2
2023-10-20T03:31:45.166Z,20.3
2023-10-20T03:36:49.080Z,20.1
2023-10-20T03:41:49.789Z,20.2
2023-10-20T03:46:53.626Z,20.2
2023-10-20T03:51:54.610Z,20.2
2023-10-20T03:56:58.199Z,20.2
2023-10-20T04:01:58.670Z,20.3
2023-10-20T04:06:59.379Z,20.2
2023-10-20T04:12:05.201Z,20.2
2023-10-20T04:17:08.438Z,20.2
2023-10-20T04:22:11.592Z,20.2
2023-10-20T04:27:11.946Z,20.2
2023-10-20T04:32:13.020Z,20.2
2023-10-20T04:37:13.682Z,20.2
2023-10-20T04:42:14.777Z,20.1
2023-10-20T04:47:14.513Z,20.2
2023-10-20T04:52:15.733Z,20.1
2023-10-20T04:57:19.344Z,20.2
2023-10-20T05:02:22.675Z,20.2
2023-10-20T05:07:25.828Z,20.1
2023-10-20T05:12:28.870Z,20.1
2023-10-20T05:17:31.800Z,20.1
2023-10-20T05:22:32.449Z,20.2
2023-10-20T05:27:36.087Z,20.2
2023-10-20T05:32:36.840Z,20.1
2023-10-20T05:37:37.918Z,20.1
2023-10-20T05:42:38.847Z,20.2
2023-10-20T05:47:42.613Z,20.2
2023-10-20T05:52:42.929Z,20.2
2023-10-20T05:57:43.898Z,20.2
2023-10-20T06:02:47.711Z,20.3
2023-10-20T06:07:50.914Z,20.3
2023-10-20T06:12:51.457Z,20.3
2023-10-20T06:17:55.401Z,20.3
2023-10-20T06:22:58.561Z,20.3
2023-10-20T06:27:59.055Z,20.3
2023-10-20T06:32:59.941Z,20.4
2023-10-20T06:38:00.748Z,20.4
2023-10-20T06:43:01.839Z,20.4
2023-10-20T06:48:05.354Z,20.4
2023-10-20T06:53:05.648Z,20.5
2023-10-20T06:58:06.589Z,20.4
2023-10-20T07:03:10.255Z,20.5
2023-10-20T07:08:10.707Z,20.5
2023-10-20T07:13:11.643Z,20.5
2023-10-20T07:18:13.940Z,20.5
2023-10-20T07:23:13.649Z,20.5
2023-10-20T07:28:17.251Z,20.6
2023-10-20T07:33:20.408Z,20.6
2023-10-20T07:38:20.733Z,20.6
2023-10-20T07:43:21.548Z,20.6
2023-10-20T07:48:22.305Z,20.6
2023-10-20T07:53:25.820Z,20.6
2023-10-20T07:58:28.992Z,20.6
2023-10-20T08:03:29.769Z,20.6
2023-10-20T08:08:30.182Z,20.6
2023-10-20T08:13:31.750Z,20.6
2023-10-20T08:18:32.704Z,20.6
2023-10-20T08:23:33.741Z,20.6
2023-10-20T08:28:37.311Z,20.6
2023-10-20T08:33:40.670Z,20.6
2023-10-20T08:38:43.949Z,20.7
2023-10-20T08:43:44.476Z,20.6
2023-10-20T08:48:45.412Z,20.6
2023-10-20T08:53:46.406Z,20.6
2023-10-20T08:58:47.233Z,20.7
2023-10-20T09:03:48.286Z,20.7
2023-10-20T09:08:50.018Z,20.6
2023-10-20T09:13:53.736Z,20.7
2023-10-20T09:18:54.936Z,20.7
2023-10-20T09:23:55.213Z,20.7
2023-10-20T09:28:59.085Z,20.7
2023-10-20T09:34:02.035Z,20.7
2023-10-20T09:39:02.667Z,20.7
2023-10-20T09:44:03.472Z,20.8
2023-10-20T09:49:06.952Z,20.7
2023-10-20T09:54:07.499Z,20.8
2023-10-20T09:59:08.616Z,20.8
2023-10-20T10:04:12.329Z,20.8
2023-10-20T10:09:12.952Z,20.8
2023-10-20T10:14:13.949Z,20.8
2023-10-20T10:19:17.659Z,20.8
2023-10-20T10:24:18.903Z,20.7
2023-10-20T10:29:22.488Z,20.8
2023-10-20T10:34:22.931Z,20.8
2023-10-20T10:39:23.975Z,20.8
2023-10-20T10:44:24.970Z,20.8
2023-10-20T10:49:26.080Z,20.8
2023-10-20T10:54:25.603Z,20.8
2023-10-20T10:59:26.613Z,20.8
2023-10-20T11:04:30.260Z,20.8
2023-10-20T11:09:30.493Z,20.9
2023-10-20T11:14:31.352Z,20.8
2023-10-20T11:19:32.242Z,20.8
2023-10-20T11:24:33.401Z,20.8
2023-10-20T11:29:47.030Z,20.8
2023-10-20T11:34:40.236Z,20.9
2023-10-20T11:39:40.589Z,20.9
2023-10-20T11:44:44.342Z,20.9
2023-10-20T11:49:44.563Z,20.9
2023-10-20T11:54:48.009Z,20.9
2023-10-20T11:59:51.317Z,20.9
2023-10-20T12:04:51.635Z,20.9
2023-10-20T12:09:55.338Z,20.9
2023-10-20T12:14:59.510Z,20.9
2023-10-20T12:20:04.137Z,20.9
2023-10-20T12:24:43.617Z,20.9
2023-10-20T12:29:44.481Z,21
2023-10-20T12:34:47.679Z,21
2023-10-20T12:39:48.256Z,21
2023-10-20T12:44:51.733Z,21
2023-10-20T12:49:52.129Z,21.1
2023-10-20T12:54:56.096Z,21.1
2023-10-20T12:59:59.373Z,21.2
2023-10-20T13:05:02.669Z,21.3
2023-10-20T13:10:03.336Z,21.4
2023-10-20T13:15:04.496Z,21.4
2023-10-20T13:20:05.435Z,21.5
2023-10-20T13:25:09.083Z,21.5
2023-10-20T13:30:12.475Z,21.5
2023-10-20T13:35:13.026Z,21.5
2023-10-20T13:40:13.556Z,21.6
2023-10-20T13:45:17.351Z,21.6
2023-10-20T13:50:20.486Z,21.6
2023-10-20T13:55:21.056Z,21.6
2023-10-20T14:00:24.519Z,21.7
2023-10-20T14:05:24.802Z,21.6
2023-10-20T14:10:25.839Z,21.7
2023-10-20T14:15:26.582Z,21.7
2023-10-20T14:20:30.037Z,21.6
2023-10-20T14:25:33.174Z,21.7
2023-10-20T14:30:33.782Z,21.7
2023-10-20T14:35:34.757Z,21.7
2023-10-20T14:40:38.382Z,21.7
2023-10-20T14:45:41.563Z,21.8
2023-10-20T14:50:44.689Z,21.7
2023-10-20T14:55:45.084Z,21.7
2023-10-20T15:00:48.692Z,21.7
2023-10-20T15:05:51.828Z,21.8
2023-10-20T15:10:52.234Z,21.8
2023-10-20T15:15:53.327Z,21.8
2023-10-20T15:20:57.100Z,21.8
2023-10-20T15:26:00.334Z,21.8
2023-10-20T15:31:00.783Z,21.8
2023-10-20T15:36:01.807Z,21.8
2023-10-20T15:41:05.480Z,21.8
2023-10-20T15:46:06.062Z,21.8
2023-10-20T15:51:06.910Z,21.9
2023-10-20T15:56:07.890Z,21.9
2023-10-20T16:01:08.592Z,21.9
2023-10-20T16:06:09.491Z,21.9
2023-10-20T16:11:13.220Z,21.9
2023-10-20T16:16:24.113Z,21.9
2023-10-20T16:21:23.663Z,21.9
2023-10-20T16:26:24.398Z,22
2023-10-20T16:31:25.430Z,22
2023-10-20T16:36:26.316Z,22
2023-10-20T16:41:27.104Z,22
2023-10-20T16:46:28.210Z,22
2023-10-20T16:51:31.693Z,22
2023-10-20T16:56:31.970Z,22
2023-10-20T17:01:32.739Z,22
2023-10-20T17:06:05.942Z,22
2023-10-20T17:11:06.796Z,22
2023-10-20T17:16:10.883Z,22.1
2023-10-20T17:21:13.999Z,22.1
2023-10-20T17:26:14.561Z,22.1
2023-10-20T17:31:18.371Z,22.1
2023-10-20T17:36:19.175Z,22
2023-10-20T17:41:20.304Z,22
2023-10-20T17:46:21.986Z,22.1
2023-10-20T17:51:23.393Z,22.1
2023-10-20T17:56:24.541Z,22.1
2023-10-20T18:01:25.438Z,22.1
2023-10-20T18:06:27.244Z,22.1
2023-10-20T18:11:28.020Z,22.1
2023-10-20T18:16:29.151Z,22.1
2023-10-20T18:21:33.141Z,22
2023-10-20T18:26:34.338Z,22
2023-10-20T18:31:37.920Z,22
2023-10-20T18:36:41.058Z,21.9
2023-10-20T18:41:44.034Z,21.8
2023-10-20T18:46:47.295Z,21.9
2023-10-20T18:51:47.713Z,21.9
2023-10-20T18:56:51.278Z,21.8
2023-10-20T19:01:51.698Z,21.8
2023-10-20T19:06:52.907Z,21.8
2023-10-20T19:11:52.622Z,21.7
2023-10-20T19:16:53.730Z,21.8
2023-10-20T19:21:57.295Z,21.8
2023-10-20T19:26:57.549Z,21.7
2023-10-20T19:31:57.338Z,21.7
2023-10-20T19:36:58.463Z,21.7
2023-10-20T19:42:01.895Z,21.7
2023-10-20T19:47:06.788Z,21.7
2023-10-20T19:52:06.830Z,21.7
2023-10-20T19:57:10.165Z,21.7
2023-10-20T20:01:47.026Z,21.7
2023-10-20T20:06:47.967Z,21.6
2023-10-20T20:11:48.906Z,21.6
2023-10-20T20:16:52.503Z,21.6
2023-10-20T20:21:52.982Z,21.6
2023-10-20T20:26:53.874Z,21.6
2023-10-20T20:31:57.518Z,21.6
2023-10-20T20:36:58.915Z,21.6
2023-10-20T20:42:02.294Z,21.6
2023-10-20T20:47:03.634Z,21.6
2023-10-20T20:52:06.697Z,21.6
2023-10-20T20:57:07.125Z,21.6
2023-10-20T21:02:08.940Z,21.6
2023-10-20T21:07:12.460Z,21.6
2023-10-20T21:12:12.843Z,21.6
2023-10-20T21:17:16.485Z,21.6
2023-10-20T21:22:17.012Z,21.5
2023-10-20T21:27:20.799Z,21.6
2023-10-20T21:32:21.369Z,21.5
2023-10-20T21:37:22.350Z,21.6
2023-10-20T21:42:23.606Z,21.6
2023-10-20T21:47:24.679Z,21.5
2023-10-20T21:52:25.462Z,21.6
2023-10-20T21:57:26.355Z,21.5
2023-10-20T22:02:30.051Z,21.6
2023-10-20T22:07:30.505Z,21.5
2023-10-20T22:12:34.298Z,21.5
2023-10-20T22:17:34.894Z,21.5
2023-10-20T22:22:38.620Z,21.5
2023-10-20T22:27:41.913Z,21.5
2023-10-20T22:32:42.392Z,21.5
2023-10-20T22:37:43.443Z,21.5
2023-10-20T22:42:47.082Z,21.5
2023-10-20T22:47:47.560Z,21.4
2023-10-20T22:52:48.431Z,21.5
2023-10-20T22:57:49.327Z,21.5
2023-10-20T23:02:50.389Z,21.5
2023-10-20T23:07:51.316Z,21.5
2023-10-20T23:12:52.129Z,21.5
2023-10-20T23:17:53.628Z,21.5
2023-10-20T23:22:56.984Z,21.5
2023-10-20T23:28:00.169Z,21.5
2023-10-20T23:33:00.579Z,21.5
2023-10-20T23:38:04.159Z,21.5
2023-10-20T23:43:04.491Z,21.5
2023-10-20T23:48:07.197Z,21.4
2023-10-20T23:53:11.211Z,21.5
2023-10-20T23:58:11.717Z,21.5
